Time;durP1;ratioP1;P1;durP2;ratioP2;P2;SDS_P1;SDS_P2;PMS_P1;PMS_P2;Temp;Humidity;BMP_temperature;BMP_pressure;BME280_temperature;BME280_humidity;BME280_pressure;Samples;Min_cycle;Max_cycle;Signal;HPM_P1;HPM_P2
2022/01/26 00:00:02;;;;;;;17.08;13.68;;;2.10;99.90;;;;;;5006370;28;20239;-74
2022/01/26 00:07:58;;;;;;;15.27;13.65;;;1.90;99.90;;;;;;5007371;28;20195;-74
2022/01/26 00:10:27;;;;;;;16.67;14.68;;;1.90;99.90;;;;;;5007440;28;20216;-74
2022/01/26 00:12:54;;;;;;;16.13;13.77;;;1.90;99.90;;;;;;5004872;28;20196;-73
2022/01/26 00:15:22;;;;;;;17.98;15.45;;;1.90;99.90;;;;;;5003752;28;20208;-74
2022/01/26 00:17:50;;;;;;;16.25;14.27;;;1.90;99.90;;;;;;5004568;28;20196;-74
2022/01/26 00:20:22;;;;;;;15.48;13.88;;;1.90;99.90;;;;;;5008714;28;20700;-73
2022/01/26 00:23:08;;;;;;;15.23;12.55;;;1.80;99.90;;;;;;5007630;28;20664;-75
2022/01/26 00:25:44;;;;;;;16.10;12.73;;;1.80;99.90;;;;;;5005580;28;20890;-74
2022/01/26 00:32:56;;;;;;;14.02;12.57;;;1.80;99.90;;;;;;4998186;28;20301;-74
2022/01/26 00:39:41;;;;;;;14.73;12.73;;;1.80;99.90;;;;;;5006745;28;20809;-75
2022/01/26 00:42:09;;;;;;;15.52;13.25;;;1.70;99.90;;;;;;5005037;28;20200;-74
2022/01/26 00:44:42;;;;;;;14.88;12.95;;;1.70;99.90;;;;;;5006368;28;20208;-74
2022/01/26 00:47:09;;;;;;;15.23;13.57;;;1.70;99.90;;;;;;5003846;28;20231;-73
2022/01/26 00:49:36;;;;;;;15.90;14.20;;;1.70;99.90;;;;;;5007339;28;20223;-74
2022/01/26 00:52:06;;;;;;;14.70;13.07;;;1.70;99.90;;;;;;5008549;28;20200;-75
2022/01/26 00:54:34;;;;;;;14.32;12.73;;;1.70;99.90;;;;;;5010397;28;20204;-74
2022/01/26 00:57:01;;;;;;;14.13;12.10;;;1.70;99.90;;;;;;5043451;23;20248;-71
2022/01/26 00:59:31;;;;;;;14.85;13.35;;;1.70;99.90;;;;;;5010828;28;20211;-70
2022/01/26 01:01:58;;;;;;;14.73;13.23;;;1.70;99.90;;;;;;5012699;28;20203;-70
2022/01/26 01:04:25;;;;;;;13.95;12.18;;;1.70;99.90;;;;;;5014126;28;20283;-70
2022/01/26 01:06:57;;;;;;;14.68;13.15;;;1.70;99.90;;;;;;5015532;28;20207;-70
2022/01/26 01:09:24;;;;;;;12.82;10.90;;;1.70;99.90;;;;;;5013937;28;20231;-70
2022/01/26 01:11:56;;;;;;;13.30;11.88;;;1.70;99.90;;;;;;5014588;28;20214;-70
2022/01/26 01:14:24;;;;;;;13.77;12.38;;;1.70;99.90;;;;;;5014938;28;20196;-70
2022/01/26 01:16:55;;;;;;;14.15;12.02;;;1.80;99.90;;;;;;5018174;28;20205;-70
2022/01/26 01:19:32;;;;;;;13.60;11.70;;;1.80;99.90;;;;;;5015077;28;20196;-70
2022/01/26 01:27:45;;;;;;;15.68;13.68;;;1.60;99.90;;;;;;5013507;28;20247;-70
2022/01/26 01:30:25;;;;;;;17.23;13.85;;;1.60;99.90;;;;;;5016415;28;20220;-69
2022/01/26 01:33:04;;;;;;;14.70;13.05;;;1.60;99.90;;;;;;5015984;28;20206;-70
2022/01/26 01:35:32;;;;;;;14.45;12.77;;;1.60;99.90;;;;;;5015465;28;20283;-69
2022/01/26 01:38:08;;;;;;;15.38;13.10;;;1.70;99.90;;;;;;5013418;28;20767;-70
2022/01/26 01:40:35;;;;;;;14.80;13.07;;;1.60;99.90;;;;;;5016036;28;20204;-70
2022/01/26 01:43:02;;;;;;;17.75;15.07;;;1.70;99.90;;;;;;5011264;28;20207;-69
2022/01/26 01:45:34;;;;;;;17.30;15.23;;;1.70;99.90;;;;;;5014931;28;20212;-70
2022/01/26 01:48:03;;;;;;;15.48;13.23;;;1.60;99.90;;;;;;5011266;28;20287;-70
2022/01/26 01:50:31;;;;;;;16.48;14.65;;;1.50;99.90;;;;;;5015277;28;20217;-70
2022/01/26 01:53:01;;;;;;;15.70;12.88;;;1.50;99.90;;;;;;5015446;28;20222;-70
2022/01/26 01:55:31;;;;;;;15.18;13.60;;;1.50;99.90;;;;;;5021713;28;20231;-69
2022/01/26 01:57:59;;;;;;;15.63;13.95;;;1.50;99.90;;;;;;5012231;28;20236;-69
2022/01/26 02:00:28;;;;;;;15.02;12.23;;;1.50;99.90;;;;;;5014856;28;20710;-70
2022/01/26 02:02:55;;;;;;;15.15;13.65;;;1.50;99.90;;;;;;5019826;28;20286;-70
2022/01/26 02:05:23;;;;;;;14.80;13.20;;;1.40;99.90;;;;;;5011044;28;20208;-69
2022/01/26 02:07:50;;;;;;;14.25;12.18;;;1.40;99.90;;;;;;5015722;28;20220;-70
2022/01/26 02:10:17;;;;;;;13.55;11.98;;;1.50;99.90;;;;;;5010501;28;20269;-70
2022/01/26 02:12:49;;;;;;;16.30;13.80;;;1.40;99.90;;;;;;5015454;28;20204;-70
2022/01/26 02:15:20;;;;;;;14.02;12.35;;;1.50;99.90;;;;;;5015697;28;20207;-68
2022/01/26 02:51:27;;;;;;;13.50;12.15;;;1.60;99.90;;;;;;4970733;28;20807;-68
2022/01/26 02:56:51;;;;;;;14.18;11.40;;;1.50;99.90;;;;;;5003801;28;20203;-68
2022/01/26 02:59:55;;;;;;;13.05;11.68;;;1.50;99.90;;;;;;5014034;28;20204;-68
2022/01/26 03:02:32;;;;;;;11.07;9.98;;;1.50;99.90;;;;;;5025421;28;20176;-69
2022/01/26 03:05:02;;;;;;;11.15;10.00;;;1.40;99.90;;;;;;5034602;28;20179;-69
2022/01/26 03:07:39;;;;;;;11.88;10.68;;;1.40;99.90;;;;;;5029893;28;20201;-69
2022/01/26 03:10:20;;;;;;;10.65;9.65;;;1.40;99.90;;;;;;5018981;28;20624;-69
2022/01/26 03:12:52;;;;;;;12.68;10.88;;;1.40;99.90;;;;;;5010014;28;20208;-69
2022/01/26 03:15:27;;;;;;;10.70;9.60;;;1.40;99.90;;;;;;5009546;28;20287;-68
2022/01/26 03:20:37;;;;;;;11.43;10.27;;;1.50;99.90;;;;;;5014703;28;20271;-68
2022/01/26 03:28:45;;;;;;;11.70;10.50;;;1.40;99.90;;;;;;5016157;28;20222;-68
2022/01/26 03:31:45;;;;;;;11.20;10.05;;;1.40;99.90;;;;;;5006619;28;20322;-68
2022/01/26 03:34:12;;;;;;;11.73;10.52;;;1.30;99.90;;;;;;5005581;28;20200;-68
2022/01/26 03:36:47;;;;;;;10.40;9.30;;;1.30;99.90;;;;;;5014667;28;20228;-68
2022/01/26 03:39:17;;;;;;;9.63;8.82;;;1.30;99.90;;;;;;5011872;28;20198;-68
2022/01/26 03:41:48;;;;;;;9.25;8.35;;;1.40;99.90;;;;;;5014622;28;20199;-68
2022/01/26 03:44:16;;;;;;;11.25;10.15;;;1.50;99.90;;;;;;5008707;28;20571;-68
2022/01/26 03:46:45;;;;;;;12.18;10.30;;;1.50;99.90;;;;;;5014090;28;20196;-69
2022/01/26 03:49:13;;;;;;;10.10;9.10;;;1.50;99.90;;;;;;5009928;28;20192;-70
2022/01/26 03:51:41;;;;;;;10.50;9.38;;;1.50;99.90;;;;;;5017044;28;20267;-70
2022/01/26 03:54:09;;;;;;;10.93;9.75;;;1.50;99.90;;;;;;5014108;28;21409;-70
2022/01/26 03:56:36;;;;;;;9.80;8.88;;;1.40;99.90;;;;;;5013625;28;20208;-70
2022/01/26 03:59:05;;;;;;;8.68;7.97;;;1.50;99.90;;;;;;5016079;28;20698;-70
2022/01/26 04:01:33;;;;;;;8.85;8.05;;;1.50;99.90;;;;;;5014556;28;20260;-70
2022/01/26 04:04:00;;;;;;;11.20;9.57;;;1.50;99.90;;;;;;5011736;28;20203;-70
2022/01/26 04:06:29;;;;;;;10.68;9.63;;;1.50;99.90;;;;;;5008414;28;20207;-70
2022/01/26 04:08:56;;;;;;;10.43;9.45;;;1.40;99.90;;;;;;5015537;28;20334;-70
2022/01/26 04:11:36;;;;;;;9.63;8.73;;;1.40;99.90;;;;;;5014188;28;20574;-70
2022/01/26 04:14:07;;;;;;;10.15;9.15;;;1.30;99.90;;;;;;5010300;28;20199;-70
2022/01/26 04:16:34;;;;;;;9.60;8.65;;;1.40;99.90;;;;;;5015296;28;20200;-70
2022/01/26 04:19:01;;;;;;;10.48;9.48;;;1.40;99.90;;;;;;5013821;28;20223;-70
2022/01/26 04:21:40;;;;;;;8.80;7.90;;;1.40;99.90;;;;;;5014721;28;20188;-70
2022/01/26 04:24:13;;;;;;;11.45;10.35;;;1.50;99.90;;;;;;5018140;28;20195;-70
2022/01/26 04:26:46;;;;;;;11.27;10.13;;;1.60;99.90;;;;;;5019880;28;20196;-70
2022/01/26 04:29:23;;;;;;;11.70;10.57;;;1.50;99.90;;;;;;5016076;28;20208;-68
2022/01/26 04:31:50;;;;;;;11.07;8.88;;;1.40;99.90;;;;;;5018819;28;20239;-68
2022/01/26 04:34:17;;;;;;;10.13;9.10;;;1.20;99.90;;;;;;5014206;28;20197;-68
2022/01/26 04:36:50;;;;;;;10.45;9.07;;;1.20;99.90;;;;;;5015064;28;20664;-68
2022/01/26 04:39:22;;;;;;;10.32;9.23;;;1.20;99.90;;;;;;5013727;28;20577;-68
2022/01/26 04:41:53;;;;;;;9.88;8.88;;;1.20;99.90;;;;;;5021610;28;20192;-68
2022/01/26 04:44:24;;;;;;;9.60;8.52;;;1.30;99.90;;;;;;5013920;28;20211;-68
2022/01/26 04:46:52;;;;;;;8.80;8.00;;;1.40;99.90;;;;;;5018741;28;20200;-69
2022/01/26 04:49:20;;;;;;;8.80;8.00;;;1.40;99.90;;;;;;5015897;28;20204;-68
2022/01/26 04:51:47;;;;;;;9.23;8.32;;;1.40;99.90;;;;;;5016469;28;20220;-68
2022/01/26 04:54:15;;;;;;;8.32;7.43;;;1.40;99.90;;;;;;5017658;28;20196;-68
2022/01/26 04:56:42;;;;;;;9.45;8.55;;;1.50;99.90;;;;;;5018505;28;20274;-68
2022/01/26 04:59:09;;;;;;;9.15;8.25;;;1.50;99.90;;;;;;5011113;28;20220;-68
2022/01/26 05:01:37;;;;;;;9.65;8.75;;;1.60;99.90;;;;;;5014770;28;20247;-68
2022/01/26 05:04:05;;;;;;;9.45;8.20;;;1.60;99.90;;;;;;5017587;28;20195;-68
2022/01/26 05:06:32;;;;;;;8.10;7.30;;;1.60;99.90;;;;;;5019357;28;20200;-68
2022/01/26 05:08:59;;;;;;;7.50;6.80;;;1.60;99.90;;;;;;5016735;28;20219;-68
2022/01/26 05:11:33;;;;;;;8.95;8.13;;;1.60;99.90;;;;;;5017273;28;20224;-68
2022/01/26 05:14:00;;;;;;;9.13;8.23;;;1.70;99.90;;;;;;5014326;28;20203;-68
2022/01/26 05:16:28;;;;;;;8.85;8.05;;;1.60;99.90;;;;;;5016414;28;20659;-68
2022/01/26 05:18:57;;;;;;;9.30;8.13;;;1.60;99.90;;;;;;5018630;28;20242;-68
2022/01/26 05:21:25;;;;;;;8.68;7.95;;;1.60;99.90;;;;;;5014784;28;20560;-68
2022/01/26 05:23:52;;;;;;;9.88;8.88;;;1.60;99.90;;;;;;5021459;28;20199;-68
2022/01/26 05:26:20;;;;;;;12.05;10.80;;;1.50;99.90;;;;;;5016893;28;20204;-68
2022/01/26 05:28:47;;;;;;;10.68;9.68;;;1.30;99.90;;;;;;5020137;28;20220;-68
2022/01/26 05:31:14;;;;;;;9.55;8.65;;;1.10;99.90;;;;;;5016798;28;20209;-68
2022/01/26 05:33:42;;;;;;;11.38;9.27;;;1.00;99.90;;;;;;5015631;28;20243;-68
2022/01/26 05:36:10;;;;;;;11.43;10.05;;;0.90;99.90;;;;;;5013951;28;20204;-70
2022/01/26 05:38:37;;;;;;;13.07;11.75;;;0.80;99.90;;;;;;5015657;28;20224;-67
2022/01/26 05:41:04;;;;;;;12.68;10.63;;;0.80;99.90;;;;;;5017323;28;20192;-68
2022/01/26 05:43:33;;;;;;;11.43;10.32;;;0.70;99.90;;;;;;5010771;28;20200;-68
2022/01/26 05:46:05;;;;;;;9.23;8.32;;;0.80;99.90;;;;;;5013515;28;20196;-69
2022/01/26 05:48:33;;;;;;;11.45;10.35;;;0.80;99.90;;;;;;5010243;28;20271;-68
2022/01/26 05:51:06;;;;;;;10.52;9.52;;;0.80;99.90;;;;;;5010684;28;20220;-68
2022/01/26 05:53:35;;;;;;;9.38;8.48;;;0.70;99.90;;;;;;5011943;28;20200;-68
2022/01/26 05:56:02;;;;;;;10.55;9.48;;;0.80;99.90;;;;;;5008289;28;20204;-68
2022/01/26 05:58:30;;;;;;;8.70;7.88;;;0.80;99.90;;;;;;5014419;28;20718;-68
2022/01/26 06:00:59;;;;;;;10.38;9.38;;;0.90;99.90;;;;;;5006321;28;20196;-68
2022/01/26 06:03:26;;;;;;;9.18;8.27;;;0.90;99.90;;;;;;5010832;28;20347;-68
2022/01/26 06:05:54;;;;;;;9.32;7.65;;;0.90;99.90;;;;;;5010593;28;20196;-68
2022/01/26 06:08:22;;;;;;;8.73;7.93;;;0.90;99.90;;;;;;5009275;28;20776;-68
2022/01/26 06:10:50;;;;;;;9.20;8.30;;;1.00;99.90;;;;;;5005723;28;20220;-67
2022/01/26 06:13:18;;;;;;;8.55;7.75;;;1.00;99.90;;;;;;5006162;28;20201;-68
2022/01/26 06:15:45;;;;;;;7.65;6.95;;;1.00;99.90;;;;;;5013921;28;20208;-68
2022/01/26 06:18:12;;;;;;;7.05;6.45;;;1.10;99.90;;;;;;5008301;28;20223;-68
2022/01/26 06:20:39;;;;;;;9.05;8.25;;;1.10;99.90;;;;;;5015185;28;20448;-68
2022/01/26 06:23:07;;;;;;;8.93;8.02;;;1.10;99.90;;;;;;5014507;28;20251;-68
2022/01/26 06:25:34;;;;;;;7.90;7.20;;;1.20;99.90;;;;;;5014805;28;20192;-68
2022/01/26 06:28:07;;;;;;;8.75;7.70;;;1.10;99.90;;;;;;5013069;28;20219;-69
2022/01/26 06:30:34;;;;;;;9.57;8.68;;;1.10;99.90;;;;;;5014536;28;20243;-68
2022/01/26 06:33:02;;;;;;;9.65;8.63;;;1.30;99.90;;;;;;5013889;28;20658;-68
2022/01/26 06:35:29;;;;;;;8.85;7.95;;;1.60;99.90;;;;;;5013625;28;20203;-68
2022/01/26 06:37:56;;;;;;;8.52;7.78;;;1.70;99.90;;;;;;5014447;28;20748;-68
2022/01/26 06:40:24;;;;;;;8.38;7.68;;;1.70;99.90;;;;;;5015166;28;20192;-68
2022/01/26 06:42:55;;;;;;;8.43;7.65;;;1.60;99.90;;;;;;5017828;28;20206;-68
2022/01/26 06:45:26;;;;;;;8.38;7.65;;;1.50;99.90;;;;;;5019270;28;20287;-68
2022/01/26 06:50:36;;;;;;;7.85;7.10;;;1.40;99.90;;;;;;5015136;28;20203;-68
2022/01/26 06:53:03;;;;;;;8.23;7.43;;;1.40;99.90;;;;;;5021642;28;20196;-68
2022/01/26 06:55:30;;;;;;;8.23;7.45;;;1.30;99.90;;;;;;5029861;28;20223;-69
2022/01/26 06:57:57;;;;;;;8.10;7.35;;;1.30;99.90;;;;;;5064386;23;20292;-75
2022/01/26 07:00:26;;;;;;;8.50;7.70;;;1.30;99.90;;;;;;5028900;28;20198;-76
2022/01/26 07:02:54;;;;;;;9.10;8.30;;;1.20;99.90;;;;;;5023848;28;20196;-76
2022/01/26 07:05:23;;;;;;;9.27;8.38;;;1.20;99.90;;;;;;5029982;28;20676;-76
2022/01/26 07:07:51;;;;;;;9.38;8.57;;;1.20;99.90;;;;;;5027873;28;20253;-76
2022/01/26 07:10:18;;;;;;;9.05;8.35;;;1.20;99.90;;;;;;5030862;28;20206;-76
2022/01/26 07:12:45;;;;;;;8.90;8.02;;;1.20;99.90;;;;;;5033911;28;20219;-75
2022/01/26 07:23:34;;;;;;;8.18;7.47;;;1.10;99.90;;;;;;5021095;28;20245;-76
2022/01/26 07:26:01;;;;;;;9.77;8.88;;;1.10;99.90;;;;;;5032074;28;20199;-76
2022/01/26 07:28:29;;;;;;;8.23;7.50;;;1.10;99.90;;;;;;5031564;28;20275;-76
2022/01/26 07:30:56;;;;;;;8.30;7.53;;;1.10;99.90;;;;;;5026196;28;20200;-76
2022/01/26 07:33:25;;;;;;;8.38;7.60;;;1.10;99.90;;;;;;5032257;28;20550;-76
2022/01/26 07:35:52;;;;;;;8.10;7.30;;;1.10;99.90;;;;;;5034025;28;20615;-76
2022/01/26 07:38:19;;;;;;;8.02;7.32;;;1.10;99.90;;;;;;5036050;28;20216;-77
2022/01/26 07:40:46;;;;;;;7.00;6.40;;;1.10;99.90;;;;;;5032122;28;20224;-76
2022/01/26 07:43:13;;;;;;;8.45;7.75;;;1.20;99.90;;;;;;5031638;28;20199;-76
2022/01/26 07:45:41;;;;;;;7.38;6.78;;;1.20;99.90;;;;;;5031510;28;20203;-76
2022/01/26 07:48:09;;;;;;;6.82;6.13;;;1.30;99.90;;;;;;5031344;28;20647;-76
2022/01/26 07:50:37;;;;;;;6.70;6.10;;;1.30;99.90;;;;;;5030171;28;20690;-76
2022/01/26 07:53:04;;;;;;;7.25;6.72;;;1.30;99.90;;;;;;5035553;28;20276;-76
2022/01/26 07:55:32;;;;;;;7.68;6.97;;;1.30;99.90;;;;;;5031369;28;20261;-76
2022/01/26 07:58:00;;;;;;;8.02;7.32;;;1.40;99.90;;;;;;5031720;28;20229;-76
2022/01/26 08:00:27;;;;;;;6.47;5.88;;;1.40;99.90;;;;;;5030527;28;20210;-77
2022/01/26 08:02:54;;;;;;;8.30;7.47;;;1.40;99.90;;;;;;5031527;28;20678;-76
2022/01/26 08:05:22;;;;;;;8.55;7.65;;;1.40;99.90;;;;;;5029848;28;20195;-76
2022/01/26 08:07:50;;;;;;;7.70;6.95;;;1.50;99.90;;;;;;5031362;28;20196;-76
2022/01/26 08:10:17;;;;;;;8.15;7.38;;;1.50;99.90;;;;;;5030151;28;20570;-76
2022/01/26 08:12:44;;;;;;;7.38;6.68;;;1.50;99.90;;;;;;5035529;28;20586;-76
2022/01/26 08:15:11;;;;;;;8.23;7.53;;;1.90;99.90;;;;;;5027490;28;20196;-76
2022/01/26 08:17:39;;;;;;;8.45;7.65;;;2.90;99.90;;;;;;5031335;28;20200;-76
2022/01/26 08:20:08;;;;;;;9.52;8.63;;;4.10;99.90;;;;;;5031586;28;20228;-77
2022/01/26 08:22:35;;;;;;;9.63;8.68;;;5.20;99.90;;;;;;5029878;28;20200;-80
2022/01/26 08:25:05;;;;;;;9.88;8.80;;;6.10;99.90;;;;;;5030340;28;20227;-79
2022/01/26 08:27:39;;;;;;;9.63;8.02;;;6.90;99.90;;;;;;5030026;28;20203;-75
2022/01/26 08:30:10;;;;;;;9.10;8.23;;;7.60;99.90;;;;;;5029521;28;20199;-77
2022/01/26 08:32:38;;;;;;;9.07;8.18;;;8.20;99.90;;;;;;5036013;28;20320;-74
2022/01/26 08:35:05;;;;;;;12.00;9.52;;;8.80;99.90;;;;;;5030022;28;20288;-75
2022/01/26 08:37:33;;;;;;;10.18;9.18;;;9.20;99.90;;;;;;5024172;28;20261;-73
2022/01/26 08:40:00;;;;;;;10.52;9.43;;;9.70;99.90;;;;;;5013408;28;20224;-73
2022/01/26 08:42:28;;;;;;;12.45;11.23;;;10.10;99.90;;;;;;5017771;28;20198;-72
2022/01/26 08:44:55;;;;;;;11.52;10.40;;;10.30;99.90;;;;;;5023085;28;20188;-74
2022/01/26 08:47:23;;;;;;;11.95;10.75;;;10.40;99.90;;;;;;5024368;28;20570;-74
2022/01/26 08:49:50;;;;;;;11.43;10.32;;;10.50;99.90;;;;;;5022891;28;20226;-74
2022/01/26 08:52:17;;;;;;;10.93;9.70;;;10.70;99.90;;;;;;5019074;28;20491;-73
2022/01/26 08:54:44;;;;;;;10.98;9.88;;;10.80;99.90;;;;;;5010736;28;20518;-74
2022/01/26 08:57:11;;;;;;;12.35;11.02;;;11.00;99.90;;;;;;5018274;28;20210;-73
2022/01/26 08:59:41;;;;;;;12.02;9.98;;;11.30;99.90;;;;;;5017053;28;20708;-74
2022/01/26 09:02:08;;;;;;;11.90;9.20;;;11.40;99.90;;;;;;5020481;28;20294;-75
2022/01/26 09:04:36;;;;;;;11.20;9.23;;;11.60;99.90;;;;;;5016189;28;20207;-74
2022/01/26 09:07:04;;;;;;;10.43;9.35;;;11.90;99.90;;;;;;5017710;28;20222;-76
2022/01/26 09:09:41;;;;;;;11.98;10.77;;;12.10;99.90;;;;;;5020609;28;20274;-75
2022/01/26 09:12:09;;;;;;;11.43;10.05;;;12.10;99.90;;;;;;5027282;28;20887;-74
2022/01/26 09:14:36;;;;;;;11.10;10.00;;;12.20;99.90;;;;;;5022383;28;20607;-74
2022/01/26 09:17:07;;;;;;;11.80;9.43;;;12.30;99.90;;;;;;5017399;28;20283;-74
2022/01/26 09:19:34;;;;;;;11.75;10.55;;;12.30;99.90;;;;;;5019413;28;20227;-76
2022/01/26 09:22:04;;;;;;;12.15;9.15;;;12.40;99.90;;;;;;5018363;28;20674;-76
2022/01/26 09:24:32;;;;;;;12.30;10.90;;;12.40;99.90;;;;;;5016225;28;20797;-75
2022/01/26 09:27:00;;;;;;;11.70;10.50;;;12.40;99.90;;;;;;5019232;28;20262;-73
2022/01/26 09:29:28;;;;;;;14.25;9.70;;;12.90;99.90;;;;;;5017023;28;20223;-74
2022/01/26 09:31:55;;;;;;;15.35;10.98;;;13.70;99.90;;;;;;5015080;28;20652;-74
2022/01/26 09:34:27;;;;;;;15.65;11.40;;;14.50;99.90;;;;;;5018515;28;21272;-76
2022/01/26 09:36:54;;;;;;;12.82;11.15;;;15.80;99.90;;;;;;5017443;28;20714;-76
2022/01/26 09:39:22;;;;;;;11.30;10.00;;;16.90;97.90;;;;;;5018224;28;20223;-76
2022/01/26 09:41:51;;;;;;;11.32;10.13;;;18.20;94.10;;;;;;5019087;28;20445;-75
2022/01/26 09:44:19;;;;;;;12.60;10.93;;;19.10;89.90;;;;;;5020336;28;20667;-73
2022/01/26 09:46:47;;;;;;;12.30;11.10;;;19.50;85.60;;;;;;5022371;28;20200;-75
2022/01/26 09:49:16;;;;;;;12.90;11.45;;;19.70;81.80;;;;;;5016000;28;20223;-74
2022/01/26 09:51:48;;;;;;;11.93;10.30;;;19.70;82.20;;;;;;5023521;28;20196;-76
2022/01/26 09:54:17;;;;;;;11.95;10.57;;;19.00;80.90;;;;;;5015994;28;20227;-75
2022/01/26 09:56:47;;;;;;;10.18;8.43;;;18.20;83.60;;;;;;5015917;28;20207;-74
2022/01/26 09:59:14;;;;;;;9.63;8.35;;;17.20;84.40;;;;;;5015742;28;20231;-76
2022/01/26 10:01:43;;;;;;;10.93;9.55;;;16.40;88.60;;;;;;5017659;28;20196;-77
2022/01/26 10:04:24;;;;;;;11.00;9.85;;;15.70;90.60;;;;;;5019497;28;20191;-74
2022/01/26 10:07:12;;;;;;;13.52;11.93;;;15.20;92.60;;;;;;5019512;28;20207;-74
2022/01/26 10:09:49;;;;;;;15.50;11.80;;;14.60;93.30;;;;;;5020713;28;20224;-74
2022/01/26 10:17:46;;;;;;;14.63;12.65;;;13.70;95.90;;;;;;5018197;28;20195;-75
2022/01/26 10:20:17;;;;;;;14.45;12.60;;;13.30;97.00;;;;;;5022860;28;20200;-76
2022/01/26 10:22:46;;;;;;;14.75;12.77;;;13.20;97.50;;;;;;5022784;28;20535;-72
2022/01/26 10:25:14;;;;;;;12.77;11.35;;;13.20;97.60;;;;;;5018968;28;20199;-76
2022/01/26 10:27:43;;;;;;;15.18;12.32;;;13.10;98.40;;;;;;5024486;28;20195;-75
2022/01/26 10:30:13;;;;;;;13.10;11.70;;;13.20;98.40;;;;;;5017868;28;20208;-75
2022/01/26 10:32:41;;;;;;;16.77;13.43;;;13.10;98.40;;;;;;5018298;28;20242;-75
2022/01/26 10:35:10;;;;;;;13.45;11.27;;;13.00;98.80;;;;;;5017157;28;20203;-76
2022/01/26 10:37:41;;;;;;;12.65;11.27;;;13.10;98.50;;;;;;5019219;28;20302;-74
2022/01/26 10:40:17;;;;;;;12.68;11.38;;;13.40;98.00;;;;;;5016783;28;20230;-73
2022/01/26 10:42:59;;;;;;;12.43;11.13;;;13.50;98.40;;;;;;5016887;28;20195;-74
2022/01/26 10:45:46;;;;;;;13.63;12.25;;;13.80;97.80;;;;;;5016331;28;20415;-75
2022/01/26 10:48:25;;;;;;;14.45;11.45;;;13.90;96.90;;;;;;5021596;28;20550;-73
2022/01/26 10:51:21;;;;;;;13.50;12.20;;;13.90;97.50;;;;;;5016143;28;20681;-74
2022/01/26 10:53:58;;;;;;;12.95;11.63;;;13.70;97.40;;;;;;5018753;28;20215;-74
2022/01/26 10:56:26;;;;;;;13.00;11.57;;;13.60;97.30;;;;;;5018271;28;20195;-74
2022/01/26 10:58:53;;;;;;;11.60;10.40;;;13.80;97.60;;;;;;5021449;28;20227;-74
2022/01/26 11:01:20;;;;;;;14.88;11.93;;;13.90;97.70;;;;;;5019941;28;20199;-74
2022/01/26 11:03:48;;;;;;;13.73;11.98;;;14.10;96.90;;;;;;5019233;28;20343;-73
2022/01/26 11:06:20;;;;;;;13.63;11.55;;;14.00;97.10;;;;;;5024797;28;20207;-75
2022/01/26 11:08:48;;;;;;;13.07;11.68;;;14.00;97.00;;;;;;5020991;28;20345;-73
2022/01/26 11:11:19;;;;;;;14.25;12.60;;;13.60;97.50;;;;;;5019451;28;20294;-74
2022/01/26 11:13:48;;;;;;;15.05;12.75;;;13.40;98.20;;;;;;5020895;28;20673;-73
2022/01/26 11:16:18;;;;;;;14.10;12.70;;;13.00;98.20;;;;;;5025088;28;20230;-73
2022/01/26 11:18:47;;;;;;;15.10;12.88;;;12.60;98.50;;;;;;5021333;28;20836;-75
2022/01/26 11:21:26;;;;;;;13.05;11.63;;;12.70;99.60;;;;;;5019458;28;20200;-75
2022/01/26 11:24:05;;;;;;;13.38;11.75;;;13.10;99.40;;;;;;5022299;28;20241;-75
2022/01/26 11:26:32;;;;;;;15.23;13.63;;;13.00;99.80;;;;;;5023411;28;20226;-76
2022/01/26 11:29:01;;;;;;;14.95;13.32;;;13.10;99.90;;;;;;5018382;28;20224;-75
2022/01/26 11:31:32;;;;;;;14.88;13.38;;;13.30;99.90;;;;;;5017498;28;20278;-73
2022/01/26 11:34:00;;;;;;;15.00;13.32;;;13.30;99.90;;;;;;5019435;28;20247;-73
2022/01/26 11:36:31;;;;;;;14.82;13.32;;;13.40;99.90;;;;;;5015542;28;20191;-74
2022/01/26 11:42:18;;;;;;;15.45;12.80;;;13.10;99.70;;;;;;4973485;28;20674;-73
2022/01/26 11:45:06;;;;;;;15.30;13.70;;;12.80;99.40;;;;;;4979309;28;20197;-74
2022/01/26 11:47:34;;;;;;;13.52;11.98;;;12.60;99.80;;;;;;5007615;28;20191;-72
2022/01/26 11:50:12;;;;;;;15.07;12.82;;;12.20;99.80;;;;;;5017709;28;20692;-75
2022/01/26 11:52:40;;;;;;;13.85;12.45;;;11.90;99.60;;;;;;5018307;28;20577;-73
2022/01/26 11:55:26;;;;;;;13.57;12.10;;;11.60;99.90;;;;;;5017046;28;20200;-72
2022/01/26 11:57:55;;;;;;;13.65;11.80;;;11.60;99.90;;;;;;5016340;28;20222;-75
2022/01/26 12:00:41;;;;;;;15.20;12.85;;;11.60;99.90;;;;;;5018932;28;20208;-75
2022/01/26 12:03:20;;;;;;;14.98;13.38;;;11.60;99.70;;;;;;5017254;28;20191;-73
2022/01/26 12:05:49;;;;;;;15.18;12.88;;;11.70;99.90;;;;;;5017454;28;20199;-75
2022/01/26 12:08:27;;;;;;;13.30;11.95;;;11.50;99.60;;;;;;5014047;28;20223;-71
2022/01/26 12:10:56;;;;;;;14.30;12.80;;;11.40;99.90;;;;;;5019920;28;20195;-73
2022/01/26 12:13:26;;;;;;;12.57;11.35;;;11.50;99.90;;;;;;5016935;28;20299;-74
2022/01/26 12:15:58;;;;;;;12.63;11.27;;;11.50;99.90;;;;;;5016829;28;20196;-76
2022/01/26 12:18:32;;;;;;;13.27;11.98;;;11.60;99.90;;;;;;5013954;28;20227;-73
2022/01/26 12:32:51;;;;;;;12.75;11.45;;;11.90;99.90;;;;;;5018693;28;20250;-74
2022/01/26 12:35:33;;;;;;;12.52;10.55;;;12.00;99.10;;;;;;5019432;28;20211;-75
2022/01/26 12:38:06;;;;;;;13.02;11.35;;;12.00;98.70;;;;;;5019884;28;20211;-74
2022/01/26 12:43:33;;;;;;;11.68;10.25;;;11.90;98.70;;;;;;5020276;28;20970;-73
2022/01/26 12:46:00;;;;;;;11.88;10.63;;;11.90;98.70;;;;;;5022690;28;20207;-73
2022/01/26 12:48:30;;;;;;;12.90;9.50;;;11.90;98.60;;;;;;5027119;28;20277;-73
2022/01/26 12:50:59;;;;;;;11.90;9.18;;;12.00;98.70;;;;;;5019307;28;20399;-77
2022/01/26 12:53:28;;;;;;;11.77;10.00;;;12.20;98.40;;;;;;5022425;28;20302;-76
2022/01/26 12:55:58;;;;;;;11.50;10.23;;;12.20;97.70;;;;;;5022839;28;20207;-73
2022/01/26 12:58:26;;;;;;;13.93;11.02;;;11.90;98.60;;;;;;5020864;28;20224;-74
2022/01/26 13:00:59;;;;;;;12.38;10.63;;;11.70;98.90;;;;;;5021634;28;20235;-74
2022/01/26 13:03:32;;;;;;;11.45;10.25;;;11.70;99.00;;;;;;5023547;28;20947;-73
2022/01/26 13:06:10;;;;;;;12.95;10.52;;;11.60;99.00;;;;;;5021538;28;20495;-77
2022/01/26 13:08:45;;;;;;;11.77;10.57;;;11.60;98.80;;;;;;5018759;28;21967;-74
2022/01/26 13:11:12;;;;;;;11.02;9.88;;;11.70;99.00;;;;;;5017678;28;20238;-74
2022/01/26 13:13:41;;;;;;;10.85;9.75;;;11.90;99.00;;;;;;5020095;28;20285;-75
2022/01/26 13:16:20;;;;;;;10.40;9.30;;;12.00;98.80;;;;;;5022808;28;20215;-74
2022/01/26 13:19:10;;;;;;;10.80;9.65;;;12.20;98.70;;;;;;5020365;28;20248;-74
2022/01/26 13:21:52;;;;;;;10.50;9.40;;;12.20;98.30;;;;;;5022862;28;20211;-75
2022/01/26 13:24:32;;;;;;;11.45;10.20;;;12.20;98.60;;;;;;5019197;28;20220;-74
2022/01/26 13:27:07;;;;;;;11.23;9.88;;;11.90;98.50;;;;;;5022340;28;20221;-79
2022/01/26 13:29:49;;;;;;;10.73;9.63;;;11.80;98.50;;;;;;5022443;28;20709;-78
2022/01/26 13:32:53;;;;;;;10.05;9.05;;;11.70;99.00;;;;;;5022150;28;20586;-80
2022/01/26 13:35:37;;;;;;;10.60;9.48;;;11.80;99.00;;;;;;5022463;28;20224;-79
2022/01/26 13:38:15;;;;;;;11.32;9.70;;;11.80;99.00;;;;;;5018819;28;20518;-74
2022/01/26 13:49:41;;;;;;;8.48;7.78;;;11.80;98.30;;;;;;4976030;28;20304;-77
2022/01/26 13:52:36;;;;;;;8.48;7.57;;;11.70;98.30;;;;;;4978350;28;20218;-77
2022/01/26 13:55:25;;;;;;;8.75;7.85;;;11.70;98.10;;;;;;5015262;28;21684;-75
2022/01/26 14:00:55;;;;;;;11.85;9.25;;;11.30;98.30;;;;;;4992161;28;20703;-75
2022/01/26 14:03:24;;;;;;;10.32;9.23;;;11.10;98.70;;;;;;5020351;28;20199;-76
2022/01/26 14:05:51;;;;;;;9.00;8.07;;;11.00;98.70;;;;;;5022578;28;20199;-77
2022/01/26 14:08:19;;;;;;;9.45;8.55;;;10.90;98.30;;;;;;5021028;28;20542;-82
2022/01/26 14:10:48;;;;;;;14.93;11.30;;;10.70;98.30;;;;;;5019149;28;20196;-74
2022/01/26 14:13:19;;;;;;;10.90;8.75;;;10.60;98.60;;;;;;5016236;28;20749;-76
2022/01/26 14:15:48;;;;;;;9.55;7.85;;;10.70;98.80;;;;;;5018719;28;20192;-79
2022/01/26 14:21:10;;;;;;;10.30;7.95;;;10.90;98.60;;;;;;5006868;28;20214;-77
2022/01/26 14:23:57;;;;;;;8.23;7.22;;;10.50;98.20;;;;;;5015230;28;20196;-75
2022/01/26 14:26:29;;;;;;;8.07;7.20;;;10.00;98.40;;;;;;5015524;28;20234;-74
2022/01/26 14:28:56;;;;;;;15.23;9.70;;;9.60;99.00;;;;;;5018013;28;20219;-74
2022/01/26 14:31:34;;;;;;;14.10;10.50;;;9.40;99.50;;;;;;5015745;28;20334;-75
2022/01/26 14:37:03;;;;;;;9.55;7.57;;;9.30;99.90;;;;;;5019990;28;20736;-75
2022/01/26 14:51:10;;;;;;;6.28;5.55;;;9.70;99.90;;;;;;5017021;28;20584;-74
2022/01/26 15:35:24;;;;;;;6.78;6.07;;;8.40;99.90;;;;;;4976562;28;20276;-75
2022/01/26 15:40:49;;;;;;;5.80;5.25;;;8.30;99.90;;;;;;5020928;28;20230;-74
2022/01/26 15:49:30;;;;;;;6.65;5.40;;;8.20;99.90;;;;;;4981001;28;20629;-73
2022/01/26 15:52:08;;;;;;;6.30;5.70;;;8.10;99.90;;;;;;4981028;28;20193;-70
2022/01/26 15:57:44;;;;;;;6.30;5.70;;;8.10;99.90;;;;;;4982798;28;20199;-72
2022/01/26 16:08:33;;;;;;;7.43;6.25;;;7.80;99.90;;;;;;4978503;28;20203;-71